sensor_id;sensor_type;location;lat;lon;timestamp;pressure;altitude;pressure_sealevel;temperature
10598;BMP180;5346;48.766;8.674;2023-03-13T00:00:04;93525.00;;;7.00
10598;BMP180;5346;48.766;8.674;2023-03-13T00:02:41;93524.00;;;7.10
10598;BMP180;5346;48.766;8.674;2023-03-13T00:05:12;93534.00;;;7.00
10598;BMP180;5346;48.766;8.674;2023-03-13T00:07:52;93523.00;;;7.10
10598;BMP180;5346;48.766;8.674;2023-03-13T00:10:26;93526.00;;;7.20
10598;BMP180;5346;48.766;8.674;2023-03-13T00:13:00;93523.00;;;7.10
10598;BMP180;5346;48.766;8.674;2023-03-13T00:15:36;93525.00;;;7.00
10598;BMP180;5346;48.766;8.674;2023-03-13T00:18:09;93525.00;;;7.30
10598;BMP180;5346;48.766;8.674;2023-03-13T00:20:43;93515.00;;;7.20
10598;BMP180;5346;48.766;8.674;2023-03-13T00:23:13;93522.00;;;7.10
10598;BMP180;5346;48.766;8.674;2023-03-13T00:25:47;93521.00;;;7.10
10598;BMP180;5346;48.766;8.674;2023-03-13T00:28:23;93516.00;;;7.30
10598;BMP180;5346;48.766;8.674;2023-03-13T00:31:07;93512.00;;;7.30
10598;BMP180;5346;48.766;8.674;2023-03-13T00:33:43;93513.00;;;7.20
10598;BMP180;5346;48.766;8.674;2023-03-13T00:36:13;93514.00;;;7.30
10598;BMP180;5346;48.766;8.674;2023-03-13T00:38:48;93511.00;;;7.10
10598;BMP180;5346;48.766;8.674;2023-03-13T00:41:23;93509.00;;;6.90
10598;BMP180;5346;48.766;8.674;2023-03-13T00:43:57;93508.00;;;6.90
10598;BMP180;5346;48.766;8.674;2023-03-13T00:46:31;93500.00;;;7.00
10598;BMP180;5346;48.766;8.674;2023-03-13T00:49:05;93490.00;;;7.10
10598;BMP180;5346;48.766;8.674;2023-03-13T00:51:33;93487.00;;;7.20
10598;BMP180;5346;48.766;8.674;2023-03-13T00:54:00;93485.00;;;7.40
10598;BMP180;5346;48.766;8.674;2023-03-13T00:56:35;93484.00;;;7.70
10598;BMP180;5346;48.766;8.674;2023-03-13T00:59:09;93483.00;;;7.80
10598;BMP180;5346;48.766;8.674;2023-03-13T01:01:45;93479.00;;;7.50
10598;BMP180;5346;48.766;8.674;2023-03-13T01:04:26;93480.00;;;7.40
10598;BMP180;5346;48.766;8.674;2023-03-13T01:07:01;93470.00;;;7.50
10598;BMP180;5346;48.766;8.674;2023-03-13T01:09:35;93463.00;;;7.70
10598;BMP180;5346;48.766;8.674;2023-03-13T01:12:02;93461.00;;;7.90
10598;BMP180;5346;48.766;8.674;2023-03-13T01:14:37;93473.00;;;7.80
10598;BMP180;5346;48.766;8.674;2023-03-13T01:17:06;93455.00;;;7.90
10598;BMP180;5346;48.766;8.674;2023-03-13T01:19:40;93447.00;;;7.80
10598;BMP180;5346;48.766;8.674;2023-03-13T01:22:14;93439.00;;;7.90
10598;BMP180;5346;48.766;8.674;2023-03-13T01:24:48;93438.00;;;7.80
10598;BMP180;5346;48.766;8.674;2023-03-13T01:27:25;93440.00;;;7.80
10598;BMP180;5346;48.766;8.674;2023-03-13T01:29:59;93437.00;;;7.80
10598;BMP180;5346;48.766;8.674;2023-03-13T01:32:36;93446.00;;;7.80
10598;BMP180;5346;48.766;8.674;2023-03-13T01:35:10;93420.00;;;7.60
10598;BMP180;5346;48.766;8.674;2023-03-13T01:37:45;93433.00;;;7.80
10598;BMP180;5346;48.766;8.674;2023-03-13T01:40:21;93414.00;;;8.00
10598;BMP180;5346;48.766;8.674;2023-03-13T01:42:59;93417.00;;;8.00
10598;BMP180;5346;48.766;8.674;2023-03-13T01:48:39;93407.00;;;8.20
10598;BMP180;5346;48.766;8.674;2023-03-13T01:51:31;93389.00;;;8.40
10598;BMP180;5346;48.766;8.674;2023-03-13T01:54:42;93378.00;;;8.40
10598;BMP180;5346;48.766;8.674;2023-03-13T01:57:27;93392.00;;;8.50
10598;BMP180;5346;48.766;8.674;2023-03-13T02:00:10;93372.00;;;8.70
10598;BMP180;5346;48.766;8.674;2023-03-13T02:02:50;93372.00;;;8.50
10598;BMP180;5346;48.766;8.674;2023-03-13T02:05:26;93367.00;;;8.60
10598;BMP180;5346;48.766;8.674;2023-03-13T02:10:38;93370.00;;;8.70
10598;BMP180;5346;48.766;8.674;2023-03-13T02:13:15;93353.00;;;8.60
10598;BMP180;5346;48.766;8.674;2023-03-13T02:15:53;93365.00;;;8.60
10598;BMP180;5346;48.766;8.674;2023-03-13T02:18:21;93370.00;;;8.70
10598;BMP180;5346;48.766;8.674;2023-03-13T02:21:05;93367.00;;;8.60
10598;BMP180;5346;48.766;8.674;2023-03-13T02:24:03;93358.00;;;8.70
10598;BMP180;5346;48.766;8.674;2023-03-13T02:26:39;93369.00;;;8.60
10598;BMP180;5346;48.766;8.674;2023-03-13T02:29:13;93357.00;;;8.50
10598;BMP180;5346;48.766;8.674;2023-03-13T02:31:48;93350.00;;;8.40
10598;BMP180;5346;48.766;8.674;2023-03-13T02:34:27;93353.00;;;8.20
10598;BMP180;5346;48.766;8.674;2023-03-13T02:36:58;93362.00;;;8.10
10598;BMP180;5346;48.766;8.674;2023-03-13T02:39:33;93355.00;;;8.00
10598;BMP180;5346;48.766;8.674;2023-03-13T02:42:03;93348.00;;;8.00
10598;BMP180;5346;48.766;8.674;2023-03-13T02:44:39;93337.00;;;8.10
10598;BMP180;5346;48.766;8.674;2023-03-13T02:47:21;93344.00;;;8.10
10598;BMP180;5346;48.766;8.674;2023-03-13T02:49:55;93334.00;;;8.00
10598;BMP180;5346;48.766;8.674;2023-03-13T02:52:29;93303.00;;;8.10
10598;BMP180;5346;48.766;8.674;2023-03-13T02:55:14;93333.00;;;7.90
10598;BMP180;5346;48.766;8.674;2023-03-13T02:57:52;93319.00;;;7.80
10598;BMP180;5346;48.766;8.674;2023-03-13T03:00:26;93314.00;;;7.90
10598;BMP180;5346;48.766;8.674;2023-03-13T03:02:54;93307.00;;;7.90
10598;BMP180;5346;48.766;8.674;2023-03-13T03:05:28;93304.00;;;7.80
10598;BMP180;5346;48.766;8.674;2023-03-13T03:08:09;93299.00;;;7.80
10598;BMP180;5346;48.766;8.674;2023-03-13T03:10:44;93289.00;;;7.80
10598;BMP180;5346;48.766;8.674;2023-03-13T03:13:11;93294.00;;;7.80
10598;BMP180;5346;48.766;8.674;2023-03-13T03:15:44;93292.00;;;7.90
10598;BMP180;5346;48.766;8.674;2023-03-13T03:18:19;93289.00;;;7.80
10598;BMP180;5346;48.766;8.674;2023-03-13T03:20:46;93288.00;;;7.90
10598;BMP180;5346;48.766;8.674;2023-03-13T03:23:20;93294.00;;;7.80
10598;BMP180;5346;48.766;8.674;2023-03-13T03:25:54;93285.00;;;7.90
10598;BMP180;5346;48.766;8.674;2023-03-13T03:28:28;93279.00;;;7.80
10598;BMP180;5346;48.766;8.674;2023-03-13T03:30:55;93279.00;;;7.90
10598;BMP180;5346;48.766;8.674;2023-03-13T03:33:30;93268.00;;;8.00
10598;BMP180;5346;48.766;8.674;2023-03-13T03:36:07;93267.00;;;7.90
10598;BMP180;5346;48.766;8.674;2023-03-13T03:38:41;93262.00;;;7.90
10598;BMP180;5346;48.766;8.674;2023-03-13T03:41:10;93263.00;;;7.90
10598;BMP180;5346;48.766;8.674;2023-03-13T03:43:45;93266.00;;;7.90
10598;BMP180;5346;48.766;8.674;2023-03-13T03:46:14;93286.00;;;7.70
10598;BMP180;5346;48.766;8.674;2023-03-13T03:48:50;93265.00;;;7.70
10598;BMP180;5346;48.766;8.674;2023-03-13T03:51:25;93269.00;;;7.60
10598;BMP180;5346;48.766;8.674;2023-03-13T03:54:02;93266.00;;;7.60
10598;BMP180;5346;48.766;8.674;2023-03-13T03:56:29;93275.00;;;7.60
10598;BMP180;5346;48.766;8.674;2023-03-13T03:58:57;93270.00;;;7.60
10598;BMP180;5346;48.766;8.674;2023-03-13T04:01:31;93261.00;;;7.70
10598;BMP180;5346;48.766;8.674;2023-03-13T04:04:07;93262.00;;;7.60
10598;BMP180;5346;48.766;8.674;2023-03-13T04:06:41;93255.00;;;7.70
10598;BMP180;5346;48.766;8.674;2023-03-13T04:09:15;93262.00;;;7.70
10598;BMP180;5346;48.766;8.674;2023-03-13T04:11:52;93243.00;;;7.70
10598;BMP180;5346;48.766;8.674;2023-03-13T04:14:20;93227.00;;;7.70
10598;BMP180;5346;48.766;8.674;2023-03-13T04:17:02;93244.00;;;7.80
10598;BMP180;5346;48.766;8.674;2023-03-13T04:19:36;93233.00;;;7.90
10598;BMP180;5346;48.766;8.674;2023-03-13T04:22:10;93261.00;;;7.90
10598;BMP180;5346;48.766;8.674;2023-03-13T04:24:37;93230.00;;;8.00
10598;BMP180;5346;48.766;8.674;2023-03-13T04:27:12;93230.00;;;8.10
10598;BMP180;5346;48.766;8.674;2023-03-13T04:29:46;93232.00;;;8.20
10598;BMP180;5346;48.766;8.674;2023-03-13T04:32:20;93217.00;;;8.30
10598;BMP180;5346;48.766;8.674;2023-03-13T04:34:54;93218.00;;;8.30
10598;BMP180;5346;48.766;8.674;2023-03-13T04:37:28;93217.00;;;8.40
10598;BMP180;5346;48.766;8.674;2023-03-13T04:40:02;93206.00;;;8.40
10598;BMP180;5346;48.766;8.674;2023-03-13T04:42:41;93206.00;;;8.50
10598;BMP180;5346;48.766;8.674;2023-03-13T04:45:13;93205.00;;;8.50
10598;BMP180;5346;48.766;8.674;2023-03-13T04:47:47;93197.00;;;8.50
10598;BMP180;5346;48.766;8.674;2023-03-13T04:50:15;93203.00;;;8.50
10598;BMP180;5346;48.766;8.674;2023-03-13T04:52:49;93215.00;;;8.50
10598;BMP180;5346;48.766;8.674;2023-03-13T04:55:23;93205.00;;;8.60
10598;BMP180;5346;48.766;8.674;2023-03-13T04:57:57;93219.00;;;8.50
10598;BMP180;5346;48.766;8.674;2023-03-13T05:00:31;93204.00;;;8.50
10598;BMP180;5346;48.766;8.674;2023-03-13T05:03:09;93201.00;;;8.50
10598;BMP180;5346;48.766;8.674;2023-03-13T05:05:51;93195.00;;;8.50
10598;BMP180;5346;48.766;8.674;2023-03-13T05:08:25;93203.00;;;8.60
10598;BMP180;5346;48.766;8.674;2023-03-13T05:11:00;93191.00;;;8.60
10598;BMP180;5346;48.766;8.674;2023-03-13T05:13:36;93208.00;;;8.60
10598;BMP180;5346;48.766;8.674;2023-03-13T05:16:10;93195.00;;;8.60
10598;BMP180;5346;48.766;8.674;2023-03-13T05:18:48;93201.00;;;8.70
10598;BMP180;5346;48.766;8.674;2023-03-13T05:21:15;93222.00;;;8.70
10598;BMP180;5346;48.766;8.674;2023-03-13T05:23:51;93203.00;;;8.80
10598;BMP180;5346;48.766;8.674;2023-03-13T05:26:18;93210.00;;;8.80
10598;BMP180;5346;48.766;8.674;2023-03-13T05:28:53;93210.00;;;8.70
10598;BMP180;5346;48.766;8.674;2023-03-13T05:31:21;93212.00;;;8.80
10598;BMP180;5346;48.766;8.674;2023-03-13T05:33:55;93198.00;;;8.70
10598;BMP180;5346;48.766;8.674;2023-03-13T05:36:42;93200.00;;;8.60
10598;BMP180;5346;48.766;8.674;2023-03-13T05:39:19;93195.00;;;8.60
10598;BMP180;5346;48.766;8.674;2023-03-13T05:41:46;93188.00;;;8.60
10598;BMP180;5346;48.766;8.674;2023-03-13T05:44:20;93194.00;;;8.60
10598;BMP180;5346;48.766;8.674;2023-03-13T05:46:55;93190.00;;;8.70
10598;BMP180;5346;48.766;8.674;2023-03-13T05:49:23;93202.00;;;8.70
10598;BMP180;5346;48.766;8.674;2023-03-13T05:51:57;93189.00;;;8.80
10598;BMP180;5346;48.766;8.674;2023-03-13T05:54:24;93200.00;;;8.80
10598;BMP180;5346;48.766;8.674;2023-03-13T05:57:02;93204.00;;;8.80
10598;BMP180;5346;48.766;8.674;2023-03-13T05:59:37;93191.00;;;8.90
10598;BMP180;5346;48.766;8.674;2023-03-13T06:02:04;93205.00;;;9.00
10598;BMP180;5346;48.766;8.674;2023-03-13T06:04:46;93211.00;;;9.00
10598;BMP180;5346;48.766;8.674;2023-03-13T06:07:27;93202.00;;;9.10
10598;BMP180;5346;48.766;8.674;2023-03-13T06:10:02;93212.00;;;9.20
10598;BMP180;5346;48.766;8.674;2023-03-13T06:12:36;93200.00;;;9.30
10598;BMP180;5346;48.766;8.674;2023-03-13T06:15:10;93182.00;;;9.30
10598;BMP180;5346;48.766;8.674;2023-03-13T06:17:44;93189.00;;;9.50
10598;BMP180;5346;48.766;8.674;2023-03-13T06:20:12;93210.00;;;9.50
10598;BMP180;5346;48.766;8.674;2023-03-13T06:22:47;93215.00;;;9.60
10598;BMP180;5346;48.766;8.674;2023-03-13T06:25:21;93205.00;;;9.60
10598;BMP180;5346;48.766;8.674;2023-03-13T06:27:48;93198.00;;;9.60
10598;BMP180;5346;48.766;8.674;2023-03-13T06:30:24;93184.00;;;9.50
10598;BMP180;5346;48.766;8.674;2023-03-13T06:32:58;93174.00;;;9.60
10598;BMP180;5346;48.766;8.674;2023-03-13T06:35:33;93194.00;;;9.50
10598;BMP180;5346;48.766;8.674;2023-03-13T06:38:23;93209.00;;;9.50
10598;BMP180;5346;48.766;8.674;2023-03-13T06:40:52;93200.00;;;9.40
10598;BMP180;5346;48.766;8.674;2023-03-13T06:43:26;93201.00;;;9.50
10598;BMP180;5346;48.766;8.674;2023-03-13T06:45:55;93200.00;;;9.40
10598;BMP180;5346;48.766;8.674;2023-03-13T06:48:31;93212.00;;;9.40
10598;BMP180;5346;48.766;8.674;2023-03-13T06:50:59;93202.00;;;9.40
10598;BMP180;5346;48.766;8.674;2023-03-13T06:53:33;93211.00;;;9.30
10598;BMP180;5346;48.766;8.674;2023-03-13T06:56:03;93217.00;;;9.30
10598;BMP180;5346;48.766;8.674;2023-03-13T06:58:37;93215.00;;;9.30
10598;BMP180;5346;48.766;8.674;2023-03-13T07:01:07;93198.00;;;9.40
10598;BMP180;5346;48.766;8.674;2023-03-13T07:03:47;93200.00;;;9.50
10598;BMP180;5346;48.766;8.674;2023-03-13T07:06:28;93221.00;;;9.60
10598;BMP180;5346;48.766;8.674;2023-03-13T07:09:04;93199.00;;;9.80
10598;BMP180;5346;48.766;8.674;2023-03-13T07:11:38;93217.00;;;9.80
10598;BMP180;5346;48.766;8.674;2023-03-13T07:14:08;93209.00;;;9.90
10598;BMP180;5346;48.766;8.674;2023-03-13T07:16:46;93198.00;;;9.90
10598;BMP180;5346;48.766;8.674;2023-03-13T07:19:15;93209.00;;;9.90
10598;BMP180;5346;48.766;8.674;2023-03-13T07:21:50;93226.00;;;9.90
10598;BMP180;5346;48.766;8.674;2023-03-13T07:24:25;93209.00;;;10.00
10598;BMP180;5346;48.766;8.674;2023-03-13T07:27:04;93193.00;;;10.10
10598;BMP180;5346;48.766;8.674;2023-03-13T07:29:34;93203.00;;;10.10
10598;BMP180;5346;48.766;8.674;2023-03-13T07:32:15;93225.00;;;10.10
10598;BMP180;5346;48.766;8.674;2023-03-13T07:34:44;93198.00;;;10.20
10598;BMP180;5346;48.766;8.674;2023-03-13T07:37:18;93182.00;;;10.20
10598;BMP180;5346;48.766;8.674;2023-03-13T07:39:54;93213.00;;;10.20
10598;BMP180;5346;48.766;8.674;2023-03-13T07:42:21;93174.00;;;10.30
10598;BMP180;5346;48.766;8.674;2023-03-13T07:44:59;93188.00;;;10.40
10598;BMP180;5346;48.766;8.674;2023-03-13T07:47:36;93207.00;;;10.40
10598;BMP180;5346;48.766;8.674;2023-03-13T07:50:11;93183.00;;;10.40
10598;BMP180;5346;48.766;8.674;2023-03-13T07:52:40;93160.00;;;10.40
10598;BMP180;5346;48.766;8.674;2023-03-13T07:55:15;93156.00;;;10.50
10598;BMP180;5346;48.766;8.674;2023-03-13T07:57:42;93165.00;;;10.50
10598;BMP180;5346;48.766;8.674;2023-03-13T08:00:19;93158.00;;;10.60
10598;BMP180;5346;48.766;8.674;2023-03-13T08:02:53;93156.00;;;10.80
10598;BMP180;5346;48.766;8.674;2023-03-13T08:05:30;93147.00;;;10.70
10598;BMP180;5346;48.766;8.674;2023-03-13T08:08:05;93182.00;;;10.70
10598;BMP180;5346;48.766;8.674;2023-03-13T08:10:49;93166.00;;;10.70
10598;BMP180;5346;48.766;8.674;2023-03-13T08:13:16;93171.00;;;10.70
10598;BMP180;5346;48.766;8.674;2023-03-13T08:16:08;93169.00;;;10.60
10598;BMP180;5346;48.766;8.674;2023-03-13T08:18:48;93174.00;;;10.60
10598;BMP180;5346;48.766;8.674;2023-03-13T08:21:36;93189.00;;;10.80
10598;BMP180;5346;48.766;8.674;2023-03-13T08:24:13;93187.00;;;10.90
10598;BMP180;5346;48.766;8.674;2023-03-13T08:26:54;93189.00;;;11.00
10598;BMP180;5346;48.766;8.674;2023-03-13T08:29:28;93196.00;;;10.90
10598;BMP180;5346;48.766;8.674;2023-03-13T08:31:55;93174.00;;;11.00
10598;BMP180;5346;48.766;8.674;2023-03-13T08:34:30;93196.00;;;11.10
10598;BMP180;5346;48.766;8.674;2023-03-13T08:36:57;93185.00;;;11.10
10598;BMP180;5346;48.766;8.674;2023-03-13T08:39:31;93211.00;;;11.20
10598;BMP180;5346;48.766;8.674;2023-03-13T08:42:08;93203.00;;;11.20
10598;BMP180;5346;48.766;8.674;2023-03-13T08:44:44;93211.00;;;11.20
10598;BMP180;5346;48.766;8.674;2023-03-13T08:47:18;93229.00;;;11.40
10598;BMP180;5346;48.766;8.674;2023-03-13T08:49:54;93214.00;;;11.50
10598;BMP180;5346;48.766;8.674;2023-03-13T08:52:29;93216.00;;;11.50
10598;BMP180;5346;48.766;8.674;2023-03-13T08:55:03;93229.00;;;11.50
10598;BMP180;5346;48.766;8.674;2023-03-13T08:57:38;93240.00;;;11.40
10598;BMP180;5346;48.766;8.674;2023-03-13T09:00:05;93235.00;;;11.80
10598;BMP180;5346;48.766;8.674;2023-03-13T09:02:41;93227.00;;;11.80
10598;BMP180;5346;48.766;8.674;2023-03-13T09:05:08;93189.00;;;12.20
10598;BMP180;5346;48.766;8.674;2023-03-13T09:07:43;93213.00;;;12.40
10598;BMP180;5346;48.766;8.674;2023-03-13T09:10:10;93200.00;;;13.30
10598;BMP180;5346;48.766;8.674;2023-03-13T09:12:46;93217.00;;;13.20
10598;BMP180;5346;48.766;8.674;2023-03-13T09:15:24;93237.00;;;12.90
10598;BMP180;5346;48.766;8.674;2023-03-13T09:17:58;93239.00;;;12.30
10598;BMP180;5346;48.766;8.674;2023-03-13T09:20:26;93255.00;;;12.20
10598;BMP180;5346;48.766;8.674;2023-03-13T09:23:07;93256.00;;;11.70
10598;BMP180;5346;48.766;8.674;2023-03-13T09:25:41;93239.00;;;12.00
10598;BMP180;5346;48.766;8.674;2023-03-13T09:28:17;93222.00;;;12.20
10598;BMP180;5346;48.766;8.674;2023-03-13T09:30:52;93216.00;;;12.40
10598;BMP180;5346;48.766;8.674;2023-03-13T09:33:27;93223.00;;;12.50
10598;BMP180;5346;48.766;8.674;2023-03-13T09:35:55;93232.00;;;12.90
10598;BMP180;5346;48.766;8.674;2023-03-13T09:38:29;93232.00;;;13.10
10598;BMP180;5346;48.766;8.674;2023-03-13T09:41:23;93208.00;;;13.40
10598;BMP180;5346;48.766;8.674;2023-03-13T09:46:43;93214.00;;;14.40
10598;BMP180;5346;48.766;8.674;2023-03-13T09:49:44;93189.00;;;14.00
10598;BMP180;5346;48.766;8.674;2023-03-13T09:52:28;93196.00;;;14.70
10598;BMP180;5346;48.766;8.674;2023-03-13T09:58:02;93134.00;;;15.80
10598;BMP180;5346;48.766;8.674;2023-03-13T10:00:39;93166.00;;;16.30
10598;BMP180;5346;48.766;8.674;2023-03-13T10:03:22;93159.00;;;16.30
10598;BMP180;5346;48.766;8.674;2023-03-13T10:06:03;93163.00;;;15.90
10598;BMP180;5346;48.766;8.674;2023-03-13T10:08:39;93156.00;;;15.70
10598;BMP180;5346;48.766;8.674;2023-03-13T10:14:16;93187.00;;;14.10
10598;BMP180;5346;48.766;8.674;2023-03-13T10:19:40;93201.00;;;13.40
10598;BMP180;5346;48.766;8.674;2023-03-13T10:22:17;93195.00;;;13.00
10598;BMP180;5346;48.766;8.674;2023-03-13T10:25:08;93201.00;;;13.00
10598;BMP180;5346;48.766;8.674;2023-03-13T10:27:51;93197.00;;;12.90
10598;BMP180;5346;48.766;8.674;2023-03-13T10:30:35;93198.00;;;13.00
10598;BMP180;5346;48.766;8.674;2023-03-13T10:33:30;93191.00;;;13.10
10598;BMP180;5346;48.766;8.674;2023-03-13T10:36:07;93180.00;;;13.50
10598;BMP180;5346;48.766;8.674;2023-03-13T10:38:53;93175.00;;;13.50
10598;BMP180;5346;48.766;8.674;2023-03-13T10:41:30;93153.00;;;13.60
10598;BMP180;5346;48.766;8.674;2023-03-13T10:44:18;93154.00;;;14.10
10598;BMP180;5346;48.766;8.674;2023-03-13T10:46:49;93154.00;;;13.80
10598;BMP180;5346;48.766;8.674;2023-03-13T10:49:24;93153.00;;;14.40
10598;BMP180;5346;48.766;8.674;2023-03-13T10:52:03;93156.00;;;14.30
10598;BMP180;5346;48.766;8.674;2023-03-13T10:54:39;93159.00;;;13.60
10598;BMP180;5346;48.766;8.674;2023-03-13T10:57:27;93160.00;;;13.40
10598;BMP180;5346;48.766;8.674;2023-03-13T11:00:02;93153.00;;;13.70
10598;BMP180;5346;48.766;8.674;2023-03-13T11:02:44;93131.00;;;13.60
10598;BMP180;5346;48.766;8.674;2023-03-13T11:05:38;93128.00;;;13.90
10598;BMP180;5346;48.766;8.674;2023-03-13T11:16:29;93114.00;;;14.60
10598;BMP180;5346;48.766;8.674;2023-03-13T11:19:19;93107.00;;;14.50
10598;BMP180;5346;48.766;8.674;2023-03-13T11:33:23;93077.00;;;16.10
10598;BMP180;5346;48.766;8.674;2023-03-13T11:36:13;93076.00;;;15.70
10598;BMP180;5346;48.766;8.674;2023-03-13T11:44:46;93056.00;;;15.10
10598;BMP180;5346;48.766;8.674;2023-03-13T11:53:03;93041.00;;;15.30
10598;BMP180;5346;48.766;8.674;2023-03-13T11:56:06;93045.00;;;15.00
10598;BMP180;5346;48.766;8.674;2023-03-13T11:58:51;93033.00;;;15.20
10598;BMP180;5346;48.766;8.674;2023-03-13T12:01:39;93030.00;;;15.40
10598;BMP180;5346;48.766;8.674;2023-03-13T12:04:24;93021.00;;;15.60
10598;BMP180;5346;48.766;8.674;2023-03-13T12:07:20;93017.00;;;15.70
10598;BMP180;5346;48.766;8.674;2023-03-13T12:09:53;92995.00;;;15.80
10598;BMP180;5346;48.766;8.674;2023-03-13T12:12:38;92988.00;;;16.20
10598;BMP180;5346;48.766;8.674;2023-03-13T12:18:35;92970.00;;;16.50
10598;BMP180;5346;48.766;8.674;2023-03-13T12:24:20;92955.00;;;16.80
10598;BMP180;5346;48.766;8.674;2023-03-13T12:27:11;92920.00;;;17.50
10598;BMP180;5346;48.766;8.674;2023-03-13T12:35:29;92900.00;;;20.70
10598;BMP180;5346;48.766;8.674;2023-03-13T12:38:16;92879.00;;;21.30
10598;BMP180;5346;48.766;8.674;2023-03-13T12:43:32;92881.00;;;19.50
10598;BMP180;5346;48.766;8.674;2023-03-13T12:46:33;92879.00;;;19.60
10598;BMP180;5346;48.766;8.674;2023-03-13T12:58:37;92857.00;;;20.10
10598;BMP180;5346;48.766;8.674;2023-03-13T13:04:00;92845.00;;;20.40
10598;BMP180;5346;48.766;8.674;2023-03-13T13:09:57;92845.00;;;19.20
10598;BMP180;5346;48.766;8.674;2023-03-13T13:12:33;92842.00;;;18.50
10598;BMP180;5346;48.766;8.674;2023-03-13T13:15:25;92840.00;;;18.30
10598;BMP180;5346;48.766;8.674;2023-03-13T13:18:13;92834.00;;;18.70
10598;BMP180;5346;48.766;8.674;2023-03-13T13:23:49;92813.00;;;19.00
10598;BMP180;5346;48.766;8.674;2023-03-13T13:37:25;92793.00;;;18.70
10598;BMP180;5346;48.766;8.674;2023-03-13T13:40:23;92793.00;;;18.90
10598;BMP180;5346;48.766;8.674;2023-03-13T13:42:57;92786.00;;;18.50
10598;BMP180;5346;48.766;8.674;2023-03-13T13:45:35;92788.00;;;19.00
10598;BMP180;5346;48.766;8.674;2023-03-13T13:56:42;92752.00;;;19.80
10598;BMP180;5346;48.766;8.674;2023-03-13T14:05:03;92747.00;;;18.60
10598;BMP180;5346;48.766;8.674;2023-03-13T14:07:47;92736.00;;;18.40
10598;BMP180;5346;48.766;8.674;2023-03-13T14:10:41;92723.00;;;18.90
10598;BMP180;5346;48.766;8.674;2023-03-13T14:13:21;92729.00;;;19.00
10598;BMP180;5346;48.766;8.674;2023-03-13T14:16:08;92724.00;;;19.00
10598;BMP180;5346;48.766;8.674;2023-03-13T14:18:52;92695.00;;;20.10
10598;BMP180;5346;48.766;8.674;2023-03-13T14:21:23;92701.00;;;20.80
10598;BMP180;5346;48.766;8.674;2023-03-13T14:24:13;92690.00;;;20.10
10598;BMP180;5346;48.766;8.674;2023-03-13T14:26:47;92702.00;;;20.10
10598;BMP180;5346;48.766;8.674;2023-03-13T14:29:21;92685.00;;;20.30
10598;BMP180;5346;48.766;8.674;2023-03-13T14:31:59;92694.00;;;20.60
10598;BMP180;5346;48.766;8.674;2023-03-13T14:34:31;92684.00;;;20.70
10598;BMP180;5346;48.766;8.674;2023-03-13T14:40:09;92676.00;;;20.70
10598;BMP180;5346;48.766;8.674;2023-03-13T14:43:00;92660.00;;;20.40
10598;BMP180;5346;48.766;8.674;2023-03-13T14:45:30;92649.00;;;20.90
10598;BMP180;5346;48.766;8.674;2023-03-13T14:48:32;92649.00;;;20.50
10598;BMP180;5346;48.766;8.674;2023-03-13T14:51:22;92640.00;;;21.40
10598;BMP180;5346;48.766;8.674;2023-03-13T14:54:01;92660.00;;;20.60
10598;BMP180;5346;48.766;8.674;2023-03-13T14:56:34;92630.00;;;20.10
10598;BMP180;5346;48.766;8.674;2023-03-13T14:59:16;92639.00;;;20.80
10598;BMP180;5346;48.766;8.674;2023-03-13T15:01:46;92622.00;;;20.60
10598;BMP180;5346;48.766;8.674;2023-03-13T15:07:17;92616.00;;;20.80
10598;BMP180;5346;48.766;8.674;2023-03-13T15:09:51;92615.00;;;20.20
10598;BMP180;5346;48.766;8.674;2023-03-13T15:12:22;92614.00;;;19.90
10598;BMP180;5346;48.766;8.674;2023-03-13T15:14:57;92603.00;;;20.10
10598;BMP180;5346;48.766;8.674;2023-03-13T15:17:27;92591.00;;;19.60
10598;BMP180;5346;48.766;8.674;2023-03-13T15:20:03;92591.00;;;19.20
10598;BMP180;5346;48.766;8.674;2023-03-13T15:22:39;92568.00;;;19.50
10598;BMP180;5346;48.766;8.674;2023-03-13T15:25:34;92564.00;;;20.10
10598;BMP180;5346;48.766;8.674;2023-03-13T15:28:20;92571.00;;;19.60
10598;BMP180;5346;48.766;8.674;2023-03-13T15:30:55;92542.00;;;19.70
10598;BMP180;5346;48.766;8.674;2023-03-13T15:33:29;92553.00;;;19.80
10598;BMP180;5346;48.766;8.674;2023-03-13T15:36:10;92550.00;;;19.30
10598;BMP180;5346;48.766;8.674;2023-03-13T15:38:47;92559.00;;;18.60
10598;BMP180;5346;48.766;8.674;2023-03-13T15:41:16;92543.00;;;18.30
10598;BMP180;5346;48.766;8.674;2023-03-13T15:43:51;92537.00;;;18.00
10598;BMP180;5346;48.766;8.674;2023-03-13T15:46:28;92511.00;;;18.10
10598;BMP180;5346;48.766;8.674;2023-03-13T15:48:56;92512.00;;;19.10
10598;BMP180;5346;48.766;8.674;2023-03-13T15:51:30;92506.00;;;19.50
10598;BMP180;5346;48.766;8.674;2023-03-13T15:54:01;92501.00;;;19.90
10598;BMP180;5346;48.766;8.674;2023-03-13T15:56:36;92490.00;;;20.00
10598;BMP180;5346;48.766;8.674;2023-03-13T15:59:13;92504.00;;;18.90
10598;BMP180;5346;48.766;8.674;2023-03-13T16:01:47;92495.00;;;18.70
10598;BMP180;5346;48.766;8.674;2023-03-13T16:04:16;92503.00;;;18.30
10598;BMP180;5346;48.766;8.674;2023-03-13T16:06:50;92495.00;;;17.90
10598;BMP180;5346;48.766;8.674;2023-03-13T16:09:18;92501.00;;;17.70
10598;BMP180;5346;48.766;8.674;2023-03-13T16:11:54;92487.00;;;17.40
10598;BMP180;5346;48.766;8.674;2023-03-13T16:14:22;92489.00;;;17.10
10598;BMP180;5346;48.766;8.674;2023-03-13T16:16:56;92490.00;;;16.90
10598;BMP180;5346;48.766;8.674;2023-03-13T16:19:24;92480.00;;;16.90
10598;BMP180;5346;48.766;8.674;2023-03-13T16:21:58;92479.00;;;16.70
10598;BMP180;5346;48.766;8.674;2023-03-13T16:24:32;92478.00;;;16.60
10598;BMP180;5346;48.766;8.674;2023-03-13T16:27:16;92468.00;;;16.50
10598;BMP180;5346;48.766;8.674;2023-03-13T16:29:44;92483.00;;;16.40
10598;BMP180;5346;48.766;8.674;2023-03-13T16:32:19;92480.00;;;16.40
10598;BMP180;5346;48.766;8.674;2023-03-13T16:34:50;92475.00;;;16.40
10598;BMP180;5346;48.766;8.674;2023-03-13T16:37:25;92468.00;;;16.20
10598;BMP180;5346;48.766;8.674;2023-03-13T16:39:59;92479.00;;;16.10
10598;BMP180;5346;48.766;8.674;2023-03-13T16:42:36;92469.00;;;16.10
10598;BMP180;5346;48.766;8.674;2023-03-13T16:45:11;92455.00;;;15.90
10598;BMP180;5346;48.766;8.674;2023-03-13T16:47:41;92449.00;;;15.90
10598;BMP180;5346;48.766;8.674;2023-03-13T16:50:32;92459.00;;;15.90
10598;BMP180;5346;48.766;8.674;2023-03-13T16:53:06;92456.00;;;16.00
10598;BMP180;5346;48.766;8.674;2023-03-13T16:55:40;92453.00;;;15.90
10598;BMP180;5346;48.766;8.674;2023-03-13T16:58:10;92452.00;;;15.80
10598;BMP180;5346;48.766;8.674;2023-03-13T17:00:46;92448.00;;;15.60
10598;BMP180;5346;48.766;8.674;2023-03-13T17:03:31;92452.00;;;15.70
10598;BMP180;5346;48.766;8.674;2023-03-13T17:06:04;92433.00;;;15.80
10598;BMP180;5346;48.766;8.674;2023-03-13T17:08:32;92438.00;;;15.70
10598;BMP180;5346;48.766;8.674;2023-03-13T17:11:10;92437.00;;;15.60
10598;BMP180;5346;48.766;8.674;2023-03-13T17:13:47;92431.00;;;15.50